createdAt,value
2022-10-06T00:04:10.374Z,82.47
2022-10-06T00:09:41.085Z,82.4
2022-10-06T00:15:12.801Z,82.33
2022-10-06T00:20:44.492Z,82.19
2022-10-06T00:26:20.562Z,82.55
2022-10-06T00:31:52.345Z,82.73
2022-10-06T00:37:24.070Z,82.6
2022-10-06T00:42:55.761Z,83.39
2022-10-06T00:48:28.272Z,83.35
2022-10-06T00:53:59.194Z,84.13
2022-10-06T00:59:31.098Z,84.82
2022-10-06T01:05:03.539Z,84.75
2022-10-06T01:10:34.434Z,84.72
2022-10-06T01:16:06.172Z,85.73
2022-10-06T01:21:37.875Z,85.62
2022-10-06T01:27:13.930Z,85.32
2022-10-06T01:32:45.683Z,85.99
2022-10-06T01:38:17.391Z,86.01
2022-10-06T01:43:49.109Z,86.93
2022-10-06T01:49:20.825Z,86.95
2022-10-06T01:54:52.617Z,87.09
2022-10-06T02:00:24.234Z,87.76
2022-10-06T02:05:56.087Z,88.28
2022-10-06T02:11:27.789Z,88.3
2022-10-06T02:16:59.481Z,88.52
2022-10-06T02:22:31.240Z,88.49
2022-10-06T02:28:07.330Z,88.32
2022-10-06T02:33:39.014Z,89.23
2022-10-06T02:39:10.746Z,88.8
2022-10-06T02:44:42.461Z,89.37
2022-10-06T02:50:14.193Z,89.16
2022-10-06T02:55:45.892Z,89.46
2022-10-06T03:01:17.801Z,89.16
2022-10-06T03:06:49.345Z,89.37
2022-10-06T03:12:21.021Z,89.08
2022-10-06T03:17:52.793Z,88.34
2022-10-06T03:23:24.573Z,89.49
2022-10-06T03:29:01.068Z,89.87
2022-10-06T03:34:32.565Z,89.84
2022-10-06T03:40:04.226Z,90.92
2022-10-06T03:45:35.803Z,91.77
2022-10-06T03:51:07.493Z,91.76
2022-10-06T03:56:39.225Z,91.17
2022-10-06T04:02:11.085Z,91.39
2022-10-06T04:07:42.849Z,91.76
2022-10-06T04:13:14.438Z,91.72
2022-10-06T04:18:46.125Z,93.78
2022-10-06T04:24:17.819Z,93.52
2022-10-06T04:29:55.851Z,92.51
2022-10-06T04:35:27.785Z,92.89
2022-10-06T04:40:59.337Z,93.09
2022-10-06T04:46:44.350Z,93.81
2022-10-06T04:52:02.911Z,95.25
2022-10-06T04:57:34.584Z,94.58
2022-10-06T05:03:06.301Z,94.42
2022-10-06T05:08:38.025Z,93.51
2022-10-06T05:14:09.809Z,93.51
2022-10-06T05:19:41.473Z,94.27
2022-10-06T05:25:13.162Z,94.05
2022-10-06T05:30:49.280Z,94.66
2022-10-06T05:36:20.956Z,94.86
2022-10-06T05:41:52.724Z,94.42
2022-10-06T05:47:24.537Z,95.03
2022-10-06T05:52:56.124Z,95.83
2022-10-06T05:58:27.830Z,96.44
2022-10-06T06:03:59.600Z,97.35
2022-10-06T06:09:31.310Z,96.43
2022-10-06T06:15:03.165Z,95.95
2022-10-06T06:20:34.721Z,96.12
2022-10-06T06:26:06.526Z,95.99
2022-10-06T06:31:42.758Z,97.48
2022-10-06T06:37:15.801Z,97.89
2022-10-06T06:42:53.774Z,99.4
2022-10-06T06:48:17.785Z,98.89
2022-10-06T06:53:49.537Z,99.41
2022-10-06T06:59:21.245Z,99.04
2022-10-06T07:04:53.016Z,99.21
2022-10-06T07:10:24.831Z,99.36
2022-10-06T07:15:56.652Z,99.05
2022-10-06T07:21:28.224Z,98.61
2022-10-06T07:26:59.838Z,98.83
2022-10-06T07:32:35.957Z,98.26
2022-10-06T07:38:07.675Z,98.72
2022-10-06T07:43:39.372Z,97.7
2022-10-06T07:49:11.101Z,98.05
2022-10-06T07:54:42.941Z,96.49
2022-10-06T08:00:14.498Z,96.04
2022-10-06T08:05:46.331Z,95.81
2022-10-06T08:11:17.978Z,95.47
2022-10-06T08:16:49.725Z,95.42
2022-10-06T08:22:28.262Z,95.48
2022-10-06T08:28:00.173Z,93.59
2022-10-06T08:33:36.197Z,93.87
2022-10-06T08:39:07.801Z,93.16
2022-10-06T08:44:39.586Z,92.41
2022-10-06T08:50:11.302Z,93.29
2022-10-06T08:55:43.033Z,92.6
2022-10-06T09:01:15.024Z,93.25
2022-10-06T09:06:46.495Z,92.96
2022-10-06T09:12:18.229Z,92.61
2022-10-06T09:17:49.948Z,91.3
2022-10-06T09:23:21.706Z,91.79
2022-10-06T09:28:53.402Z,90.67
2022-10-06T09:34:29.521Z,90.68
2022-10-06T09:40:01.213Z,90.88
2022-10-06T09:45:32.918Z,88.63
2022-10-06T09:51:04.800Z,88.75
2022-10-06T09:56:36.350Z,89.39
2022-10-06T10:02:08.137Z,88.53
2022-10-06T10:07:39.833Z,86.72
2022-10-06T10:13:11.538Z,88.43
2022-10-06T10:18:43.250Z,87.02
2022-10-06T10:24:14.984Z,86.29
2022-10-06T10:29:46.673Z,87.81
2022-10-06T10:35:22.801Z,86.37
2022-10-06T10:40:54.529Z,86.39
2022-10-06T10:46:26.353Z,85.32
2022-10-06T10:51:58.157Z,84.87
2022-10-06T10:57:29.718Z,84.77
2022-10-06T11:03:01.412Z,81.84
2022-10-06T11:08:33.202Z,82.9
2022-10-06T11:14:04.854Z,79.7
2022-10-06T11:19:36.582Z,80.38
2022-10-06T11:30:40.105Z,79.02
2022-10-06T11:36:16.128Z,79.31
2022-10-06T11:41:47.878Z,79.45
2022-10-06T11:52:51.303Z,79.26
2022-10-06T11:58:42.851Z,78.93
2022-10-06T12:03:54.749Z,77.59
2022-10-06T12:09:26.602Z,79.81
2022-10-06T12:20:29.946Z,79.34
2022-10-06T12:26:01.679Z,80.34
2022-10-06T12:31:33.422Z,78.64
2022-10-06T12:37:09.526Z,79.96
2022-10-06T12:42:41.253Z,77.39
2022-10-06T12:48:12.986Z,78.81
2022-10-06T12:53:51.594Z,77.66
2022-10-06T12:59:23.298Z,78.15
2022-10-06T13:04:55.023Z,76.03
2022-10-06T13:10:26.720Z,77.41
2022-10-06T13:15:58.524Z,78.09
2022-10-06T13:21:30.185Z,77.7
2022-10-06T13:27:01.930Z,78.24
2022-10-06T13:32:33.739Z,78.09
2022-10-06T13:38:09.810Z,76.09
2022-10-06T13:43:41.465Z,78.33
2022-10-06T13:49:13.182Z,77.74
2022-10-06T13:54:44.926Z,77.9
2022-10-06T14:00:16.617Z,78.29
2022-10-06T14:05:48.350Z,78.68
2022-10-06T14:11:20.073Z,79.47
2022-10-06T14:16:51.822Z,78.12
2022-10-06T14:22:23.541Z,78.61
2022-10-06T14:27:55.248Z,79.17
2022-10-06T14:33:27.056Z,80.09
2022-10-06T14:39:05.097Z,79.0
2022-10-06T14:44:36.857Z,77.91
2022-10-06T14:50:08.537Z,78.26
2022-10-06T14:55:40.389Z,77.33
2022-10-06T15:01:11.922Z,78.17
2022-10-06T15:06:43.811Z,80.85
2022-10-06T15:12:15.431Z,79.6
2022-10-06T15:17:47.186Z,80.4
2022-10-06T15:23:18.866Z,80.98
2022-10-06T15:28:50.645Z,81.26
2022-10-06T15:34:22.330Z,79.38
2022-10-06T15:39:58.491Z,79.12
2022-10-06T15:45:30.236Z,79.07
2022-10-06T15:51:01.901Z,79.66
2022-10-06T15:56:33.653Z,81.76
2022-10-06T16:02:05.497Z,80.83
2022-10-06T16:07:37.080Z,82.43
2022-10-06T16:13:08.801Z,82.53
2022-10-06T16:18:40.519Z,82.42
2022-10-06T16:24:12.219Z,83.01
2022-10-06T16:29:44.075Z,83.64
2022-10-06T16:35:18.808Z,84.12
2022-10-06T16:40:51.823Z,83.69
2022-10-06T16:46:23.646Z,84.58
2022-10-06T16:51:55.352Z,85.43
2022-10-06T16:57:26.985Z,85.12
2022-10-06T17:02:58.880Z,85.62
2022-10-06T17:08:30.459Z,85.29
2022-10-06T17:14:02.179Z,85.75
2022-10-06T17:19:33.880Z,85.32
2022-10-06T17:25:05.678Z,86.04
2022-10-06T17:30:37.284Z,85.4
2022-10-06T17:36:09.082Z,86.8
2022-10-06T17:41:47.179Z,86.82
2022-10-06T17:47:18.923Z,87.25
2022-10-06T17:52:50.547Z,87.13
2022-10-06T17:58:22.339Z,87.96
2022-10-06T18:03:54.034Z,87.95
2022-10-06T18:09:25.716Z,88.44
2022-10-06T18:14:57.436Z,88.29
2022-10-06T18:20:29.206Z,88.48
2022-10-06T18:26:00.921Z,88.89
2022-10-06T18:31:32.885Z,88.64
2022-10-06T18:37:04.395Z,88.44
2022-10-06T18:42:40.574Z,87.65
2022-10-06T18:48:12.180Z,87.38
2022-10-06T18:53:44.076Z,87.8
2022-10-06T18:59:15.636Z,86.95
2022-10-06T19:04:47.388Z,87.55
2022-10-06T19:10:19.105Z,87.72
2022-10-06T19:15:50.887Z,88.09
2022-10-06T19:21:22.564Z,88.55
2022-10-06T19:26:54.303Z,88.37
2022-10-06T19:32:26.826Z,88.67
2022-10-06T19:37:58.560Z,89.3
2022-10-06T19:43:34.669Z,89.58
2022-10-06T19:49:06.394Z,89.59
2022-10-06T19:54:38.210Z,89.43
2022-10-06T20:00:09.895Z,90.08
2022-10-06T20:05:41.614Z,89.79
2022-10-06T20:11:13.333Z,89.9
2022-10-06T20:16:45.484Z,89.56
2022-10-06T20:22:16.697Z,90.1
2022-10-06T20:27:48.525Z,89.77
2022-10-06T20:33:20.212Z,90.08
2022-10-06T20:38:51.958Z,90.66
2022-10-06T20:44:28.061Z,91.29
2022-10-06T20:49:59.843Z,91.79
2022-10-06T20:55:31.558Z,91.85
2022-10-06T21:01:03.340Z,92.34
2022-10-06T21:06:35.010Z,92.63
2022-10-06T21:12:06.692Z,92.06
2022-10-06T21:17:38.416Z,93.0
2022-10-06T21:23:10.200Z,92.03
2022-10-06T21:28:41.966Z,91.28
2022-10-06T21:34:13.620Z,92.23
2022-10-06T21:39:45.361Z,92.55
2022-10-06T21:45:25.450Z,92.97
2022-10-06T21:50:53.158Z,92.36
2022-10-06T21:56:24.883Z,92.86
2022-10-06T22:01:56.870Z,93.37
2022-10-06T22:07:28.372Z,92.74
2022-10-06T22:13:00.067Z,92.79
2022-10-06T22:18:31.730Z,92.22
2022-10-06T22:24:03.537Z,92.38
2022-10-06T22:29:35.260Z,92.69
2022-10-06T22:35:06.960Z,92.48
2022-10-06T22:40:38.604Z,92.47
2022-10-06T22:46:17.092Z,93.41
2022-10-06T22:51:48.499Z,92.89
2022-10-06T22:57:20.243Z,93.56
2022-10-06T23:02:52.044Z,94.05
2022-10-06T23:08:23.695Z,94.48
2022-10-06T23:13:55.437Z,94.62
2022-10-06T23:19:27.152Z,94.9
2022-10-06T23:24:58.822Z,95.01
2022-10-06T23:30:30.541Z,95.15
2022-10-06T23:36:02.304Z,95.34
2022-10-06T23:41:34.028Z,95.79
2022-10-06T23:47:10.191Z,95.77
2022-10-06T23:52:41.872Z,95.84
2022-10-06T23:58:13.630Z,95.95
